sensor_id;sensor_type;location;lat;lon;timestamp;P1;durP1;ratioP1;P2;durP2;ratioP2
28252;SDS011;15515;45.588;5.276;2022-08-21T07:41:13;4.88;;;1.70;;
28252;SDS011;15515;45.588;5.276;2022-08-21T07:43:51;3.88;;;2.17;;
28252;SDS011;15515;45.588;5.276;2022-08-21T07:46:18;5.78;;;1.83;;
28252;SDS011;15515;45.588;5.276;2022-08-21T07:48:46;3.17;;;1.50;;
28252;SDS011;15515;45.588;5.276;2022-08-21T07:51:13;2.80;;;1.25;;
28252;SDS011;15515;45.588;5.276;2022-08-21T07:53:46;3.80;;;1.50;;
28252;SDS011;15515;45.588;5.276;2022-08-21T07:56:17;3.30;;;1.50;;
28252;SDS011;15515;45.588;5.276;2022-08-21T07:58:44;3.58;;;1.58;;
28252;SDS011;15515;45.588;5.276;2022-08-21T08:01:12;3.90;;;1.95;;
28252;SDS011;15515;45.588;5.276;2022-08-21T08:03:40;6.28;;;1.88;;
28252;SDS011;15515;45.588;5.276;2022-08-21T08:06:07;3.15;;;1.73;;
28252;SDS011;15515;45.588;5.276;2022-08-21T08:08:39;5.97;;;2.40;;
28252;SDS011;15515;45.588;5.276;2022-08-21T08:11:07;5.60;;;1.65;;
28252;SDS011;15515;45.588;5.276;2022-08-21T08:13:40;10.32;;;2.50;;
28252;SDS011;15515;45.588;5.276;2022-08-21T08:16:09;3.20;;;1.63;;
28252;SDS011;15515;45.588;5.276;2022-08-21T08:18:36;3.15;;;1.38;;
28252;SDS011;15515;45.588;5.276;2022-08-21T08:21:03;5.53;;;1.85;;
28252;SDS011;15515;45.588;5.276;2022-08-21T08:23:31;3.10;;;1.73;;
28252;SDS011;15515;45.588;5.276;2022-08-21T08:25:59;5.72;;;2.25;;
28252;SDS011;15515;45.588;5.276;2022-08-21T08:28:29;4.93;;;1.80;;
28252;SDS011;15515;45.588;5.276;2022-08-21T08:31:01;4.00;;;1.30;;
28252;SDS011;15515;45.588;5.276;2022-08-21T08:33:28;4.47;;;1.77;;
28252;SDS011;15515;45.588;5.276;2022-08-21T08:35:56;4.88;;;1.42;;
28252;SDS011;15515;45.588;5.276;2022-08-21T08:38:23;5.00;;;1.60;;
28252;SDS011;15515;45.588;5.276;2022-08-21T08:43:32;6.68;;;4.28;;
28252;SDS011;15515;45.588;5.276;2022-08-21T08:46:04;2.70;;;1.60;;
28252;SDS011;15515;45.588;5.276;2022-08-21T08:48:53;6.00;;;1.52;;
28252;SDS011;15515;45.588;5.276;2022-08-21T08:54:28;4.53;;;1.30;;
28252;SDS011;15515;45.588;5.276;2022-08-21T08:57:05;2.70;;;1.35;;
28252;SDS011;15515;45.588;5.276;2022-08-21T08:59:40;4.80;;;1.42;;
28252;SDS011;15515;45.588;5.276;2022-08-21T09:02:11;3.78;;;1.40;;
28252;SDS011;15515;45.588;5.276;2022-08-21T09:04:39;3.88;;;1.38;;
28252;SDS011;15515;45.588;5.276;2022-08-21T09:07:25;4.72;;;1.48;;
28252;SDS011;15515;45.588;5.276;2022-08-21T09:12:52;2.47;;;1.20;;
28252;SDS011;15515;45.588;5.276;2022-08-21T09:15:33;5.38;;;1.50;;
28252;SDS011;15515;45.588;5.276;2022-08-21T09:23:49;2.80;;;1.80;;
28252;SDS011;15515;45.588;5.276;2022-08-21T09:26:31;1.92;;;1.20;;
28252;SDS011;15515;45.588;5.276;2022-08-21T09:29:12;2.55;;;1.25;;
28252;SDS011;15515;45.588;5.276;2022-08-21T09:31:41;2.67;;;1.00;;
28252;SDS011;15515;45.588;5.276;2022-08-21T09:34:09;5.07;;;1.00;;
28252;SDS011;15515;45.588;5.276;2022-08-21T09:36:45;3.17;;;1.15;;
28252;SDS011;15515;45.588;5.276;2022-08-21T09:39:27;4.57;;;1.45;;
28252;SDS011;15515;45.588;5.276;2022-08-21T09:42:05;2.28;;;1.30;;
28252;SDS011;15515;45.588;5.276;2022-08-21T09:44:37;2.70;;;1.00;;
28252;SDS011;15515;45.588;5.276;2022-08-21T09:47:09;3.60;;;1.30;;
28252;SDS011;15515;45.588;5.276;2022-08-21T09:49:41;3.50;;;1.20;;
28252;SDS011;15515;45.588;5.276;2022-08-21T09:52:17;3.13;;;1.60;;
28252;SDS011;15515;45.588;5.276;2022-08-21T09:54:51;4.28;;;1.30;;
28252;SDS011;15515;45.588;5.276;2022-08-21T09:57:23;3.58;;;0.95;;
28252;SDS011;15515;45.588;5.276;2022-08-21T10:00:38;1.93;;;1.20;;
28252;SDS011;15515;45.588;5.276;2022-08-21T10:03:09;2.20;;;1.02;;
28252;SDS011;15515;45.588;5.276;2022-08-21T10:05:38;2.58;;;1.30;;
28252;SDS011;15515;45.588;5.276;2022-08-21T10:08:15;1.65;;;1.40;;
28252;SDS011;15515;45.588;5.276;2022-08-21T10:10:45;1.77;;;1.40;;
28252;SDS011;15515;45.588;5.276;2022-08-21T10:21:38;2.92;;;1.33;;
28252;SDS011;15515;45.588;5.276;2022-08-21T10:35:22;4.88;;;1.23;;
28252;SDS011;15515;45.588;5.276;2022-08-21T10:41:24;1.83;;;1.17;;
28252;SDS011;15515;45.588;5.276;2022-08-21T10:46:47;3.22;;;1.23;;
28252;SDS011;15515;45.588;5.276;2022-08-21T10:54:54;2.97;;;1.38;;
28252;SDS011;15515;45.588;5.276;2022-08-21T11:00:33;1.75;;;1.08;;
28252;SDS011;15515;45.588;5.276;2022-08-21T11:03:25;2.35;;;1.25;;
28252;SDS011;15515;45.588;5.276;2022-08-21T11:06:10;1.52;;;1.23;;
28252;SDS011;15515;45.588;5.276;2022-08-21T11:08:49;2.38;;;1.70;;
28252;SDS011;15515;45.588;5.276;2022-08-21T11:11:31;2.75;;;1.23;;
28252;SDS011;15515;45.588;5.276;2022-08-21T11:16:43;3.80;;;1.30;;
28252;SDS011;15515;45.588;5.276;2022-08-21T11:27:32;7.55;;;1.90;;
28252;SDS011;15515;45.588;5.276;2022-08-21T11:30:00;6.00;;;2.60;;
28252;SDS011;15515;45.588;5.276;2022-08-21T11:43:44;5.75;;;2.72;;
28252;SDS011;15515;45.588;5.276;2022-08-21T11:46:19;2.45;;;1.27;;
28252;SDS011;15515;45.588;5.276;2022-08-21T11:49:29;1.88;;;1.00;;
28252;SDS011;15515;45.588;5.276;2022-08-21T11:55:06;3.50;;;1.23;;
28252;SDS011;15515;45.588;5.276;2022-08-21T12:02:55;2.83;;;1.25;;
28252;SDS011;15515;45.588;5.276;2022-08-21T12:05:32;3.55;;;1.23;;
28252;SDS011;15515;45.588;5.276;2022-08-21T12:08:09;4.55;;;1.60;;
28252;SDS011;15515;45.588;5.276;2022-08-21T12:10:42;2.17;;;1.30;;
28252;SDS011;15515;45.588;5.276;2022-08-21T12:13:26;4.22;;;1.23;;
28252;SDS011;15515;45.588;5.276;2022-08-21T12:26:57;2.00;;;1.10;;
28252;SDS011;15515;45.588;5.276;2022-08-21T12:29:28;2.78;;;1.58;;
28252;SDS011;15515;45.588;5.276;2022-08-21T12:34:37;3.83;;;1.30;;
28252;SDS011;15515;45.588;5.276;2022-08-21T12:37:14;2.83;;;1.83;;
28252;SDS011;15515;45.588;5.276;2022-08-21T12:42:51;2.78;;;1.40;;
28252;SDS011;15515;45.588;5.276;2022-08-21T12:45:34;2.78;;;1.20;;
28252;SDS011;15515;45.588;5.276;2022-08-21T12:50:51;4.15;;;2.47;;
28252;SDS011;15515;45.588;5.276;2022-08-21T12:53:31;1.92;;;1.20;;
28252;SDS011;15515;45.588;5.276;2022-08-21T12:56:16;2.78;;;1.02;;
28252;SDS011;15515;45.588;5.276;2022-08-21T12:58:47;4.38;;;1.48;;
28252;SDS011;15515;45.588;5.276;2022-08-21T13:01:24;2.72;;;0.98;;
28252;SDS011;15515;45.588;5.276;2022-08-21T13:03:56;2.25;;;1.10;;
28252;SDS011;15515;45.588;5.276;2022-08-21T13:06:25;2.78;;;1.15;;
28252;SDS011;15515;45.588;5.276;2022-08-21T13:08:59;1.27;;;0.90;;
28252;SDS011;15515;45.588;5.276;2022-08-21T13:11:32;4.18;;;1.38;;
28252;SDS011;15515;45.588;5.276;2022-08-21T13:14:00;2.65;;;2.00;;
28252;SDS011;15515;45.588;5.276;2022-08-21T13:16:29;3.90;;;1.27;;
28252;SDS011;15515;45.588;5.276;2022-08-21T13:19:02;3.65;;;1.23;;
28252;SDS011;15515;45.588;5.276;2022-08-21T13:21:34;2.03;;;1.05;;
28252;SDS011;15515;45.588;5.276;2022-08-21T13:24:08;3.78;;;1.38;;
28252;SDS011;15515;45.588;5.276;2022-08-21T13:26:57;3.38;;;0.95;;
28252;SDS011;15515;45.588;5.276;2022-08-21T13:29:27;3.83;;;1.20;;
28252;SDS011;15515;45.588;5.276;2022-08-21T13:31:59;4.82;;;1.50;;
28252;SDS011;15515;45.588;5.276;2022-08-21T13:34:33;3.83;;;1.02;;
28252;SDS011;15515;45.588;5.276;2022-08-21T13:37:03;5.47;;;1.50;;
28252;SDS011;15515;45.588;5.276;2022-08-21T13:39:32;3.00;;;1.27;;
28252;SDS011;15515;45.588;5.276;2022-08-21T13:42:01;2.55;;;1.42;;
28252;SDS011;15515;45.588;5.276;2022-08-21T13:47:01;5.57;;;1.70;;
28252;SDS011;15515;45.588;5.276;2022-08-21T13:49:34;3.33;;;1.30;;
28252;SDS011;15515;45.588;5.276;2022-08-21T13:52:04;4.35;;;1.73;;
28252;SDS011;15515;45.588;5.276;2022-08-21T13:54:55;6.90;;;1.88;;
28252;SDS011;15515;45.588;5.276;2022-08-21T13:57:28;5.30;;;1.80;;
28252;SDS011;15515;45.588;5.276;2022-08-21T14:00:12;5.10;;;1.60;;
28252;SDS011;15515;45.588;5.276;2022-08-21T14:02:40;5.13;;;1.40;;
28252;SDS011;15515;45.588;5.276;2022-08-21T14:05:25;4.35;;;1.50;;
28252;SDS011;15515;45.588;5.276;2022-08-21T14:08:07;3.88;;;1.25;;
28252;SDS011;15515;45.588;5.276;2022-08-21T14:10:44;4.20;;;1.45;;
28252;SDS011;15515;45.588;5.276;2022-08-21T14:13:37;3.45;;;1.10;;
28252;SDS011;15515;45.588;5.276;2022-08-21T14:16:11;2.88;;;1.77;;
28252;SDS011;15515;45.588;5.276;2022-08-21T14:18:50;2.67;;;1.60;;
28252;SDS011;15515;45.588;5.276;2022-08-21T14:21:32;2.15;;;1.30;;
28252;SDS011;15515;45.588;5.276;2022-08-21T14:26:29;5.20;;;1.52;;
28252;SDS011;15515;45.588;5.276;2022-08-21T14:29:00;2.70;;;1.20;;
28252;SDS011;15515;45.588;5.276;2022-08-21T14:31:28;2.35;;;1.27;;
28252;SDS011;15515;45.588;5.276;2022-08-21T14:33:59;3.58;;;1.20;;
28252;SDS011;15515;45.588;5.276;2022-08-21T14:36:26;2.67;;;1.10;;
28252;SDS011;15515;45.588;5.276;2022-08-21T14:38:54;3.13;;;1.00;;
28252;SDS011;15515;45.588;5.276;2022-08-21T14:41:22;1.90;;;0.90;;
28252;SDS011;15515;45.588;5.276;2022-08-21T14:43:52;2.15;;;1.05;;
28252;SDS011;15515;45.588;5.276;2022-08-21T14:46:21;3.42;;;1.10;;
28252;SDS011;15515;45.588;5.276;2022-08-21T14:48:51;3.33;;;1.25;;
28252;SDS011;15515;45.588;5.276;2022-08-21T14:51:19;3.55;;;1.40;;
28252;SDS011;15515;45.588;5.276;2022-08-21T14:53:46;3.85;;;0.98;;
28252;SDS011;15515;45.588;5.276;2022-08-21T14:56:14;3.53;;;1.33;;
28252;SDS011;15515;45.588;5.276;2022-08-21T14:58:47;3.58;;;1.75;;
28252;SDS011;15515;45.588;5.276;2022-08-21T15:01:16;6.00;;;1.45;;
28252;SDS011;15515;45.588;5.276;2022-08-21T15:03:45;2.35;;;1.25;;
28252;SDS011;15515;45.588;5.276;2022-08-21T15:06:15;2.50;;;1.30;;
28252;SDS011;15515;45.588;5.276;2022-08-21T15:08:44;2.40;;;1.15;;
28252;SDS011;15515;45.588;5.276;2022-08-21T15:11:11;2.97;;;1.55;;
28252;SDS011;15515;45.588;5.276;2022-08-21T15:13:45;3.40;;;1.73;;
28252;SDS011;15515;45.588;5.276;2022-08-21T15:16:14;6.22;;;1.60;;
28252;SDS011;15515;45.588;5.276;2022-08-21T15:18:41;4.15;;;1.98;;
28252;SDS011;15515;45.588;5.276;2022-08-21T15:21:09;4.90;;;1.67;;
28252;SDS011;15515;45.588;5.276;2022-08-21T15:23:36;2.50;;;1.67;;
28252;SDS011;15515;45.588;5.276;2022-08-21T15:26:03;3.65;;;1.40;;
28252;SDS011;15515;45.588;5.276;2022-08-21T15:28:30;4.35;;;1.80;;
28252;SDS011;15515;45.588;5.276;2022-08-21T15:30:59;3.33;;;2.08;;
28252;SDS011;15515;45.588;5.276;2022-08-21T15:33:27;3.90;;;2.13;;
28252;SDS011;15515;45.588;5.276;2022-08-21T15:35:55;4.00;;;2.22;;
28252;SDS011;15515;45.588;5.276;2022-08-21T15:38:22;4.35;;;2.03;;
28252;SDS011;15515;45.588;5.276;2022-08-21T15:40:50;4.68;;;3.45;;
28252;SDS011;15515;45.588;5.276;2022-08-21T15:43:31;3.47;;;2.38;;
28252;SDS011;15515;45.588;5.276;2022-08-21T15:46:10;3.75;;;3.28;;
28252;SDS011;15515;45.588;5.276;2022-08-21T15:48:40;5.05;;;2.08;;
28252;SDS011;15515;45.588;5.276;2022-08-21T15:51:08;7.13;;;5.25;;
28252;SDS011;15515;45.588;5.276;2022-08-21T15:53:36;5.10;;;3.33;;
28252;SDS011;15515;45.588;5.276;2022-08-21T15:56:06;5.05;;;2.28;;
28252;SDS011;15515;45.588;5.276;2022-08-21T15:59:00;4.47;;;2.25;;
28252;SDS011;15515;45.588;5.276;2022-08-21T16:01:33;4.35;;;2.50;;
28252;SDS011;15515;45.588;5.276;2022-08-21T16:04:02;4.18;;;2.88;;
28252;SDS011;15515;45.588;5.276;2022-08-21T16:06:29;5.13;;;2.83;;
28252;SDS011;15515;45.588;5.276;2022-08-21T16:08:57;9.38;;;3.83;;
28252;SDS011;15515;45.588;5.276;2022-08-21T16:11:24;5.40;;;2.90;;
28252;SDS011;15515;45.588;5.276;2022-08-21T16:13:52;4.50;;;2.50;;
28252;SDS011;15515;45.588;5.276;2022-08-21T16:16:22;6.18;;;3.47;;
28252;SDS011;15515;45.588;5.276;2022-08-21T16:18:51;6.50;;;4.65;;
28252;SDS011;15515;45.588;5.276;2022-08-21T16:21:19;7.70;;;3.40;;
28252;SDS011;15515;45.588;5.276;2022-08-21T16:23:46;4.32;;;3.08;;
28252;SDS011;15515;45.588;5.276;2022-08-21T16:26:13;5.20;;;3.10;;
28252;SDS011;15515;45.588;5.276;2022-08-21T16:28:42;5.60;;;2.58;;
28252;SDS011;15515;45.588;5.276;2022-08-21T16:31:11;6.82;;;3.05;;
28252;SDS011;15515;45.588;5.276;2022-08-21T16:33:41;3.75;;;3.00;;
28252;SDS011;15515;45.588;5.276;2022-08-21T16:36:10;4.18;;;2.67;;
28252;SDS011;15515;45.588;5.276;2022-08-21T16:38:38;7.38;;;5.00;;
28252;SDS011;15515;45.588;5.276;2022-08-21T16:41:08;6.68;;;5.20;;
28252;SDS011;15515;45.588;5.276;2022-08-21T16:43:40;6.05;;;3.83;;
28252;SDS011;15515;45.588;5.276;2022-08-21T16:46:09;5.28;;;3.67;;
28252;SDS011;15515;45.588;5.276;2022-08-21T16:48:39;6.57;;;3.83;;
28252;SDS011;15515;45.588;5.276;2022-08-21T16:51:07;7.82;;;3.80;;
28252;SDS011;15515;45.588;5.276;2022-08-21T16:53:34;6.68;;;3.58;;
28252;SDS011;15515;45.588;5.276;2022-08-21T16:56:01;16.23;;;13.20;;
28252;SDS011;15515;45.588;5.276;2022-08-21T16:58:29;13.25;;;8.15;;
28252;SDS011;15515;45.588;5.276;2022-08-21T17:01:04;6.40;;;4.60;;
28252;SDS011;15515;45.588;5.276;2022-08-21T17:06:06;5.55;;;4.10;;
28252;SDS011;15515;45.588;5.276;2022-08-21T17:08:34;6.65;;;4.07;;
28252;SDS011;15515;45.588;5.276;2022-08-21T17:11:02;7.65;;;4.68;;
28252;SDS011;15515;45.588;5.276;2022-08-21T17:13:30;6.50;;;4.50;;
28252;SDS011;15515;45.588;5.276;2022-08-21T17:15:58;7.03;;;3.95;;
28252;SDS011;15515;45.588;5.276;2022-08-21T17:18:25;8.07;;;6.75;;
28252;SDS011;15515;45.588;5.276;2022-08-21T17:20:53;6.53;;;5.15;;
28252;SDS011;15515;45.588;5.276;2022-08-21T17:23:21;5.10;;;3.42;;
28252;SDS011;15515;45.588;5.276;2022-08-21T17:25:49;6.20;;;3.65;;
28252;SDS011;15515;45.588;5.276;2022-08-21T17:28:19;7.20;;;5.43;;
28252;SDS011;15515;45.588;5.276;2022-08-21T17:30:51;4.90;;;4.25;;
28252;SDS011;15515;45.588;5.276;2022-08-21T17:33:21;9.38;;;5.05;;
28252;SDS011;15515;45.588;5.276;2022-08-21T17:35:48;7.95;;;4.55;;
28252;SDS011;15515;45.588;5.276;2022-08-21T17:38:15;7.53;;;3.58;;
28252;SDS011;15515;45.588;5.276;2022-08-21T17:40:42;5.82;;;3.55;;
28252;SDS011;15515;45.588;5.276;2022-08-21T17:43:13;6.57;;;3.20;;
28252;SDS011;15515;45.588;5.276;2022-08-21T17:45:41;5.47;;;3.65;;
28252;SDS011;15515;45.588;5.276;2022-08-21T17:48:09;6.32;;;4.00;;
28252;SDS011;15515;45.588;5.276;2022-08-21T17:50:37;4.68;;;3.22;;
28252;SDS011;15515;45.588;5.276;2022-08-21T17:53:04;7.38;;;4.10;;
28252;SDS011;15515;45.588;5.276;2022-08-21T17:55:32;17.35;;;10.98;;
28252;SDS011;15515;45.588;5.276;2022-08-21T17:58:00;11.73;;;6.18;;
28252;SDS011;15515;45.588;5.276;2022-08-21T18:00:30;8.15;;;4.70;;
28252;SDS011;15515;45.588;5.276;2022-08-21T18:03:02;8.98;;;4.40;;
28252;SDS011;15515;45.588;5.276;2022-08-21T18:05:34;6.47;;;3.58;;
28252;SDS011;15515;45.588;5.276;2022-08-21T18:08:01;8.98;;;3.63;;
28252;SDS011;15515;45.588;5.276;2022-08-21T18:10:29;6.35;;;3.53;;
28252;SDS011;15515;45.588;5.276;2022-08-21T18:12:56;7.72;;;3.53;;
28252;SDS011;15515;45.588;5.276;2022-08-21T18:15:24;8.77;;;5.25;;
28252;SDS011;15515;45.588;5.276;2022-08-21T18:17:51;8.85;;;3.40;;
28252;SDS011;15515;45.588;5.276;2022-08-21T18:20:20;9.73;;;6.32;;
28252;SDS011;15515;45.588;5.276;2022-08-21T18:22:48;11.00;;;5.10;;
28252;SDS011;15515;45.588;5.276;2022-08-21T18:25:16;8.02;;;5.72;;
28252;SDS011;15515;45.588;5.276;2022-08-21T18:27:44;7.55;;;3.97;;
28252;SDS011;15515;45.588;5.276;2022-08-21T18:30:14;9.25;;;3.92;;
28252;SDS011;15515;45.588;5.276;2022-08-21T18:32:43;8.95;;;3.90;;
28252;SDS011;15515;45.588;5.276;2022-08-21T18:35:11;13.18;;;9.57;;
28252;SDS011;15515;45.588;5.276;2022-08-21T18:37:40;10.85;;;3.95;;
28252;SDS011;15515;45.588;5.276;2022-08-21T18:40:07;6.78;;;3.40;;
28252;SDS011;15515;45.588;5.276;2022-08-21T18:42:38;6.32;;;3.00;;
28252;SDS011;15515;45.588;5.276;2022-08-21T18:45:08;5.50;;;3.08;;
28252;SDS011;15515;45.588;5.276;2022-08-21T18:47:41;6.68;;;3.45;;
28252;SDS011;15515;45.588;5.276;2022-08-21T18:50:11;7.93;;;3.38;;
28252;SDS011;15515;45.588;5.276;2022-08-21T18:52:41;7.47;;;3.58;;
28252;SDS011;15515;45.588;5.276;2022-08-21T18:55:10;7.80;;;4.55;;
28252;SDS011;15515;45.588;5.276;2022-08-21T18:57:39;12.68;;;5.35;;
28252;SDS011;15515;45.588;5.276;2022-08-21T19:00:11;10.35;;;6.45;;
28252;SDS011;15515;45.588;5.276;2022-08-21T19:02:41;7.97;;;4.75;;
28252;SDS011;15515;45.588;5.276;2022-08-21T19:05:09;13.45;;;4.88;;
28252;SDS011;15515;45.588;5.276;2022-08-21T19:07:39;6.18;;;3.78;;
28252;SDS011;15515;45.588;5.276;2022-08-21T19:10:07;5.88;;;2.80;;
28252;SDS011;15515;45.588;5.276;2022-08-21T19:12:48;6.88;;;3.15;;
28252;SDS011;15515;45.588;5.276;2022-08-21T19:15:17;7.05;;;3.20;;
28252;SDS011;15515;45.588;5.276;2022-08-21T19:17:48;6.40;;;2.72;;
28252;SDS011;15515;45.588;5.276;2022-08-21T19:20:19;13.15;;;3.88;;
28252;SDS011;15515;45.588;5.276;2022-08-21T19:22:50;9.50;;;4.03;;
28252;SDS011;15515;45.588;5.276;2022-08-21T19:25:17;10.32;;;3.00;;
28252;SDS011;15515;45.588;5.276;2022-08-21T19:27:44;6.68;;;2.85;;
28252;SDS011;15515;45.588;5.276;2022-08-21T19:30:12;5.50;;;3.03;;
28252;SDS011;15515;45.588;5.276;2022-08-21T19:32:41;10.40;;;6.05;;
28252;SDS011;15515;45.588;5.276;2022-08-21T19:35:11;8.65;;;3.55;;
28252;SDS011;15515;45.588;5.276;2022-08-21T19:37:40;5.90;;;3.03;;
28252;SDS011;15515;45.588;5.276;2022-08-21T19:40:08;9.48;;;3.45;;
28252;SDS011;15515;45.588;5.276;2022-08-21T19:42:36;7.50;;;3.22;;
28252;SDS011;15515;45.588;5.276;2022-08-21T19:45:03;7.05;;;2.90;;
28252;SDS011;15515;45.588;5.276;2022-08-21T19:47:31;7.57;;;3.05;;
28252;SDS011;15515;45.588;5.276;2022-08-21T19:50:00;6.78;;;2.70;;
28252;SDS011;15515;45.588;5.276;2022-08-21T19:52:29;6.80;;;2.60;;
28252;SDS011;15515;45.588;5.276;2022-08-21T19:54:58;6.55;;;2.92;;
28252;SDS011;15515;45.588;5.276;2022-08-21T19:57:25;4.45;;;2.60;;
28252;SDS011;15515;45.588;5.276;2022-08-21T19:59:52;5.55;;;2.45;;
28252;SDS011;15515;45.588;5.276;2022-08-21T20:02:19;7.47;;;2.30;;
28252;SDS011;15515;45.588;5.276;2022-08-21T20:04:46;6.70;;;3.00;;
28252;SDS011;15515;45.588;5.276;2022-08-21T20:07:14;4.93;;;2.58;;
28252;SDS011;15515;45.588;5.276;2022-08-21T20:09:42;7.50;;;2.75;;
28252;SDS011;15515;45.588;5.276;2022-08-21T20:12:10;5.65;;;2.40;;
28252;SDS011;15515;45.588;5.276;2022-08-21T20:14:42;5.63;;;2.67;;
28252;SDS011;15515;45.588;5.276;2022-08-21T20:17:12;5.78;;;2.47;;
28252;SDS011;15515;45.588;5.276;2022-08-21T20:19:42;4.82;;;2.13;;
28252;SDS011;15515;45.588;5.276;2022-08-21T20:22:11;4.43;;;1.88;;
28252;SDS011;15515;45.588;5.276;2022-08-21T20:24:39;5.15;;;2.42;;
28252;SDS011;15515;45.588;5.276;2022-08-21T20:27:08;7.18;;;2.60;;
28252;SDS011;15515;45.588;5.276;2022-08-21T20:29:39;4.68;;;2.22;;
28252;SDS011;15515;45.588;5.276;2022-08-21T20:32:06;4.65;;;2.28;;
28252;SDS011;15515;45.588;5.276;2022-08-21T20:34:34;6.55;;;2.83;;
28252;SDS011;15515;45.588;5.276;2022-08-21T20:37:01;6.30;;;2.55;;
28252;SDS011;15515;45.588;5.276;2022-08-21T20:39:28;7.88;;;2.70;;
28252;SDS011;15515;45.588;5.276;2022-08-21T20:41:55;7.70;;;2.08;;
28252;SDS011;15515;45.588;5.276;2022-08-21T20:44:23;6.97;;;2.50;;
28252;SDS011;15515;45.588;5.276;2022-08-21T20:46:54;4.35;;;2.15;;
28252;SDS011;15515;45.588;5.276;2022-08-21T20:49:24;5.47;;;2.97;;
28252;SDS011;15515;45.588;5.276;2022-08-21T20:51:54;7.93;;;2.53;;
28252;SDS011;15515;45.588;5.276;2022-08-21T20:54:41;7.95;;;2.67;;
28252;SDS011;15515;45.588;5.276;2022-08-21T21:00:06;3.92;;;2.20;;
28252;SDS011;15515;45.588;5.276;2022-08-21T21:05:17;5.53;;;2.40;;
28252;SDS011;15515;45.588;5.276;2022-08-21T21:08:08;7.13;;;2.65;;
28252;SDS011;15515;45.588;5.276;2022-08-21T21:10:57;7.03;;;2.40;;
28252;SDS011;15515;45.588;5.276;2022-08-21T21:16:22;5.13;;;2.30;;
28252;SDS011;15515;45.588;5.276;2022-08-21T21:19:00;4.47;;;2.30;;
28252;SDS011;15515;45.588;5.276;2022-08-21T21:21:53;6.00;;;2.50;;
28252;SDS011;15515;45.588;5.276;2022-08-21T21:24:25;6.57;;;2.67;;
28252;SDS011;15515;45.588;5.276;2022-08-21T21:29:44;4.65;;;2.20;;
28252;SDS011;15515;45.588;5.276;2022-08-21T21:32:15;6.35;;;2.05;;
28252;SDS011;15515;45.588;5.276;2022-08-21T21:34:42;4.38;;;2.15;;
28252;SDS011;15515;45.588;5.276;2022-08-21T21:37:26;4.13;;;2.30;;
28252;SDS011;15515;45.588;5.276;2022-08-21T21:49:13;7.35;;;2.38;;
28252;SDS011;15515;45.588;5.276;2022-08-21T21:52:02;4.90;;;2.22;;
28252;SDS011;15515;45.588;5.276;2022-08-21T22:00:20;9.63;;;2.03;;
28252;SDS011;15515;45.588;5.276;2022-08-21T22:05:40;4.57;;;1.98;;
28252;SDS011;15515;45.588;5.276;2022-08-21T22:08:24;4.22;;;1.63;;
28252;SDS011;15515;45.588;5.276;2022-08-21T22:11:03;2.65;;;1.67;;
28252;SDS011;15515;45.588;5.276;2022-08-21T22:13:43;4.43;;;1.90;;
28252;SDS011;15515;45.588;5.276;2022-08-21T22:16:15;6.97;;;2.00;;
28252;SDS011;15515;45.588;5.276;2022-08-21T22:18:45;3.63;;;1.52;;
28252;SDS011;15515;45.588;5.276;2022-08-21T22:21:20;7.00;;;2.00;;
28252;SDS011;15515;45.588;5.276;2022-08-21T22:23:54;4.43;;;1.73;;
28252;SDS011;15515;45.588;5.276;2022-08-21T22:26:39;3.78;;;1.90;;
28252;SDS011;15515;45.588;5.276;2022-08-21T22:29:09;3.83;;;1.70;;
28252;SDS011;15515;45.588;5.276;2022-08-21T22:31:40;4.65;;;1.92;;
28252;SDS011;15515;45.588;5.276;2022-08-21T22:34:10;7.22;;;2.08;;
28252;SDS011;15515;45.588;5.276;2022-08-21T22:36:42;3.03;;;1.98;;
28252;SDS011;15515;45.588;5.276;2022-08-21T22:39:26;4.80;;;1.90;;
28252;SDS011;15515;45.588;5.276;2022-08-21T22:41:53;3.40;;;1.90;;
28252;SDS011;15515;45.588;5.276;2022-08-21T22:44:24;4.82;;;1.85;;
28252;SDS011;15515;45.588;5.276;2022-08-21T22:46:55;8.07;;;2.22;;
28252;SDS011;15515;45.588;5.276;2022-08-21T22:49:31;3.83;;;1.77;;
28252;SDS011;15515;45.588;5.276;2022-08-21T22:52:09;5.43;;;2.33;;
28252;SDS011;15515;45.588;5.276;2022-08-21T22:54:45;6.38;;;2.10;;
28252;SDS011;15515;45.588;5.276;2022-08-21T22:57:20;6.40;;;1.90;;
28252;SDS011;15515;45.588;5.276;2022-08-21T23:00:00;4.65;;;1.92;;
28252;SDS011;15515;45.588;5.276;2022-08-21T23:05:21;6.60;;;2.10;;
28252;SDS011;15515;45.588;5.276;2022-08-21T23:07:52;3.97;;;2.03;;
28252;SDS011;15515;45.588;5.276;2022-08-21T23:10:25;4.32;;;2.00;;
28252;SDS011;15515;45.588;5.276;2022-08-21T23:13:00;3.95;;;2.45;;
28252;SDS011;15515;45.588;5.276;2022-08-21T23:16:26;4.60;;;2.10;;
28252;SDS011;15515;45.588;5.276;2022-08-21T23:24:06;6.10;;;2.38;;
28252;SDS011;15515;45.588;5.276;2022-08-21T23:29:16;3.97;;;1.92;;
28252;SDS011;15515;45.588;5.276;2022-08-21T23:32:29;5.13;;;1.67;;
28252;SDS011;15515;45.588;5.276;2022-08-21T23:40:56;4.32;;;1.90;;
28252;SDS011;15515;45.588;5.276;2022-08-21T23:46:35;5.60;;;2.22;;
28252;SDS011;15515;45.588;5.276;2022-08-21T23:58:03;3.22;;;1.75;;
